sensor_id;sensor_type;location;lat;lon;timestamp;P1;durP1;ratioP1;P2;durP2;ratioP2
55633;SDS011;41504;53.162;6.788;2023-12-20T00:01:37;12.73;;;2.53;;
55633;SDS011;41504;53.162;6.788;2023-12-20T00:04:03;14.73;;;2.50;;
55633;SDS011;41504;53.162;6.788;2023-12-20T00:06:29;9.40;;;2.50;;
55633;SDS011;41504;53.162;6.788;2023-12-20T00:08:55;11.48;;;2.38;;
55633;SDS011;41504;53.162;6.788;2023-12-20T00:11:23;16.92;;;2.55;;
55633;SDS011;41504;53.162;6.788;2023-12-20T00:13:49;11.70;;;2.55;;
55633;SDS011;41504;53.162;6.788;2023-12-20T00:16:14;11.68;;;2.30;;
55633;SDS011;41504;53.162;6.788;2023-12-20T00:18:40;13.35;;;2.60;;
55633;SDS011;41504;53.162;6.788;2023-12-20T00:21:05;10.35;;;2.15;;
55633;SDS011;41504;53.162;6.788;2023-12-20T00:23:31;10.63;;;2.10;;
55633;SDS011;41504;53.162;6.788;2023-12-20T00:25:57;10.40;;;2.17;;
55633;SDS011;41504;53.162;6.788;2023-12-20T00:28:23;15.98;;;2.55;;
55633;SDS011;41504;53.162;6.788;2023-12-20T00:30:48;11.95;;;2.40;;
55633;SDS011;41504;53.162;6.788;2023-12-20T00:33:14;12.57;;;2.40;;
55633;SDS011;41504;53.162;6.788;2023-12-20T00:35:40;11.13;;;2.90;;
55633;SDS011;41504;53.162;6.788;2023-12-20T00:38:06;14.32;;;2.40;;
55633;SDS011;41504;53.162;6.788;2023-12-20T00:40:33;14.95;;;2.60;;
55633;SDS011;41504;53.162;6.788;2023-12-20T00:42:59;15.07;;;3.13;;
55633;SDS011;41504;53.162;6.788;2023-12-20T00:45:25;11.23;;;3.00;;
55633;SDS011;41504;53.162;6.788;2023-12-20T00:47:51;12.15;;;2.47;;
55633;SDS011;41504;53.162;6.788;2023-12-20T00:50:17;9.18;;;2.10;;
55633;SDS011;41504;53.162;6.788;2023-12-20T00:52:51;10.48;;;1.90;;
55633;SDS011;41504;53.162;6.788;2023-12-20T00:55:20;15.00;;;3.00;;
55633;SDS011;41504;53.162;6.788;2023-12-20T00:57:45;15.43;;;3.30;;
55633;SDS011;41504;53.162;6.788;2023-12-20T01:00:14;12.05;;;2.17;;
55633;SDS011;41504;53.162;6.788;2023-12-20T01:02:40;15.10;;;2.80;;
55633;SDS011;41504;53.162;6.788;2023-12-20T01:05:06;11.25;;;2.63;;
55633;SDS011;41504;53.162;6.788;2023-12-20T01:07:34;12.68;;;2.40;;
55633;SDS011;41504;53.162;6.788;2023-12-20T01:10:00;14.68;;;2.35;;
55633;SDS011;41504;53.162;6.788;2023-12-20T01:12:25;16.90;;;2.78;;
55633;SDS011;41504;53.162;6.788;2023-12-20T01:14:51;11.90;;;2.55;;
55633;SDS011;41504;53.162;6.788;2023-12-20T01:17:20;12.68;;;2.65;;
55633;SDS011;41504;53.162;6.788;2023-12-20T01:19:46;12.20;;;2.63;;
55633;SDS011;41504;53.162;6.788;2023-12-20T01:22:11;14.57;;;3.15;;
55633;SDS011;41504;53.162;6.788;2023-12-20T01:24:37;17.67;;;3.47;;
55633;SDS011;41504;53.162;6.788;2023-12-20T01:27:03;15.40;;;2.70;;
55633;SDS011;41504;53.162;6.788;2023-12-20T01:29:29;13.25;;;2.88;;
55633;SDS011;41504;53.162;6.788;2023-12-20T01:31:54;12.05;;;2.50;;
55633;SDS011;41504;53.162;6.788;2023-12-20T01:34:20;11.75;;;2.80;;
55633;SDS011;41504;53.162;6.788;2023-12-20T01:36:46;13.75;;;2.65;;
55633;SDS011;41504;53.162;6.788;2023-12-20T01:39:11;14.68;;;2.92;;
55633;SDS011;41504;53.162;6.788;2023-12-20T01:41:37;15.65;;;3.17;;
55633;SDS011;41504;53.162;6.788;2023-12-20T01:44:03;12.68;;;2.75;;
55633;SDS011;41504;53.162;6.788;2023-12-20T01:46:29;14.02;;;3.00;;
55633;SDS011;41504;53.162;6.788;2023-12-20T01:48:55;11.82;;;2.78;;
55633;SDS011;41504;53.162;6.788;2023-12-20T01:51:21;14.27;;;2.55;;
55633;SDS011;41504;53.162;6.788;2023-12-20T01:53:47;18.67;;;3.70;;
55633;SDS011;41504;53.162;6.788;2023-12-20T01:56:17;20.70;;;4.18;;
55633;SDS011;41504;53.162;6.788;2023-12-20T01:58:44;12.80;;;3.13;;
55633;SDS011;41504;53.162;6.788;2023-12-20T02:01:11;15.70;;;3.35;;
55633;SDS011;41504;53.162;6.788;2023-12-20T02:03:41;9.82;;;2.65;;
55633;SDS011;41504;53.162;6.788;2023-12-20T02:06:07;12.07;;;3.15;;
55633;SDS011;41504;53.162;6.788;2023-12-20T02:08:34;13.20;;;2.58;;
55633;SDS011;41504;53.162;6.788;2023-12-20T02:11:00;11.77;;;2.53;;
55633;SDS011;41504;53.162;6.788;2023-12-20T02:13:26;12.02;;;2.30;;
55633;SDS011;41504;53.162;6.788;2023-12-20T02:15:52;9.18;;;2.20;;
55633;SDS011;41504;53.162;6.788;2023-12-20T02:18:19;13.20;;;2.60;;
55633;SDS011;41504;53.162;6.788;2023-12-20T02:20:45;13.88;;;2.45;;
55633;SDS011;41504;53.162;6.788;2023-12-20T02:23:12;13.57;;;2.38;;
55633;SDS011;41504;53.162;6.788;2023-12-20T02:25:38;12.70;;;2.45;;
55633;SDS011;41504;53.162;6.788;2023-12-20T02:28:03;12.15;;;2.60;;
55633;SDS011;41504;53.162;6.788;2023-12-20T02:30:30;12.68;;;2.55;;
55633;SDS011;41504;53.162;6.788;2023-12-20T02:32:56;10.90;;;2.50;;
55633;SDS011;41504;53.162;6.788;2023-12-20T02:35:22;12.38;;;2.70;;
55633;SDS011;41504;53.162;6.788;2023-12-20T02:37:48;12.13;;;2.35;;
55633;SDS011;41504;53.162;6.788;2023-12-20T02:40:14;13.25;;;2.55;;
55633;SDS011;41504;53.162;6.788;2023-12-20T02:42:39;13.00;;;3.00;;
55633;SDS011;41504;53.162;6.788;2023-12-20T02:45:05;11.65;;;2.88;;
55633;SDS011;41504;53.162;6.788;2023-12-20T02:47:31;15.20;;;2.83;;
55633;SDS011;41504;53.162;6.788;2023-12-20T02:49:57;14.63;;;3.05;;
55633;SDS011;41504;53.162;6.788;2023-12-20T02:52:23;15.57;;;3.60;;
55633;SDS011;41504;53.162;6.788;2023-12-20T02:54:49;15.88;;;3.28;;
55633;SDS011;41504;53.162;6.788;2023-12-20T02:57:15;17.08;;;3.08;;
55633;SDS011;41504;53.162;6.788;2023-12-20T02:59:40;19.95;;;3.83;;
55633;SDS011;41504;53.162;6.788;2023-12-20T03:02:06;20.83;;;3.63;;
55633;SDS011;41504;53.162;6.788;2023-12-20T03:04:32;19.80;;;3.33;;
55633;SDS011;41504;53.162;6.788;2023-12-20T03:06:58;13.82;;;3.25;;
55633;SDS011;41504;53.162;6.788;2023-12-20T03:09:23;19.20;;;3.50;;
55633;SDS011;41504;53.162;6.788;2023-12-20T03:11:49;16.38;;;3.33;;
55633;SDS011;41504;53.162;6.788;2023-12-20T03:14:21;16.77;;;3.70;;
55633;SDS011;41504;53.162;6.788;2023-12-20T03:16:49;12.93;;;3.30;;
55633;SDS011;41504;53.162;6.788;2023-12-20T03:19:16;17.00;;;3.70;;
55633;SDS011;41504;53.162;6.788;2023-12-20T03:21:43;18.77;;;3.80;;
55633;SDS011;41504;53.162;6.788;2023-12-20T03:24:08;19.90;;;3.65;;
55633;SDS011;41504;53.162;6.788;2023-12-20T03:26:34;16.83;;;3.58;;
55633;SDS011;41504;53.162;6.788;2023-12-20T03:29:00;17.70;;;3.58;;
55633;SDS011;41504;53.162;6.788;2023-12-20T03:31:25;21.95;;;4.13;;
55633;SDS011;41504;53.162;6.788;2023-12-20T03:33:51;17.13;;;4.30;;
55633;SDS011;41504;53.162;6.788;2023-12-20T03:36:18;18.30;;;4.05;;
55633;SDS011;41504;53.162;6.788;2023-12-20T03:38:44;24.73;;;4.20;;
55633;SDS011;41504;53.162;6.788;2023-12-20T03:41:11;15.00;;;4.15;;
55633;SDS011;41504;53.162;6.788;2023-12-20T03:43:36;22.88;;;4.20;;
55633;SDS011;41504;53.162;6.788;2023-12-20T03:46:02;18.88;;;4.35;;
55633;SDS011;41504;53.162;6.788;2023-12-20T03:48:29;22.00;;;4.68;;
55633;SDS011;41504;53.162;6.788;2023-12-20T03:50:56;20.95;;;3.92;;
55633;SDS011;41504;53.162;6.788;2023-12-20T03:53:25;18.23;;;4.15;;
55633;SDS011;41504;53.162;6.788;2023-12-20T03:55:54;20.13;;;4.03;;
55633;SDS011;41504;53.162;6.788;2023-12-20T03:58:20;17.92;;;4.22;;
55633;SDS011;41504;53.162;6.788;2023-12-20T04:00:45;24.23;;;4.82;;
55633;SDS011;41504;53.162;6.788;2023-12-20T04:03:11;21.00;;;4.68;;
55633;SDS011;41504;53.162;6.788;2023-12-20T04:05:39;18.77;;;4.43;;
55633;SDS011;41504;53.162;6.788;2023-12-20T04:08:05;26.27;;;4.80;;
55633;SDS011;41504;53.162;6.788;2023-12-20T04:10:32;20.10;;;4.55;;
55633;SDS011;41504;53.162;6.788;2023-12-20T04:12:58;21.88;;;4.65;;
55633;SDS011;41504;53.162;6.788;2023-12-20T04:15:23;25.17;;;5.25;;
55633;SDS011;41504;53.162;6.788;2023-12-20T04:17:49;24.30;;;4.55;;
55633;SDS011;41504;53.162;6.788;2023-12-20T04:20:15;20.77;;;4.15;;
55633;SDS011;41504;53.162;6.788;2023-12-20T04:22:40;22.60;;;4.40;;
55633;SDS011;41504;53.162;6.788;2023-12-20T04:25:07;16.00;;;3.72;;
55633;SDS011;41504;53.162;6.788;2023-12-20T04:27:36;20.08;;;4.75;;
55633;SDS011;41504;53.162;6.788;2023-12-20T04:30:01;21.95;;;4.60;;
55633;SDS011;41504;53.162;6.788;2023-12-20T04:32:27;24.40;;;4.28;;
55633;SDS011;41504;53.162;6.788;2023-12-20T04:34:53;21.00;;;4.45;;
55633;SDS011;41504;53.162;6.788;2023-12-20T04:37:19;22.95;;;4.22;;
55633;SDS011;41504;53.162;6.788;2023-12-20T04:39:45;23.45;;;5.25;;
55633;SDS011;41504;53.162;6.788;2023-12-20T04:42:12;19.92;;;4.68;;
55633;SDS011;41504;53.162;6.788;2023-12-20T04:44:38;19.83;;;4.32;;
55633;SDS011;41504;53.162;6.788;2023-12-20T04:47:08;18.98;;;4.05;;
55633;SDS011;41504;53.162;6.788;2023-12-20T04:49:34;18.77;;;4.22;;
55633;SDS011;41504;53.162;6.788;2023-12-20T04:52:00;20.30;;;4.40;;
55633;SDS011;41504;53.162;6.788;2023-12-20T04:54:25;21.50;;;3.90;;
55633;SDS011;41504;53.162;6.788;2023-12-20T04:56:51;21.02;;;4.32;;
55633;SDS011;41504;53.162;6.788;2023-12-20T04:59:19;20.48;;;4.32;;
55633;SDS011;41504;53.162;6.788;2023-12-20T05:01:45;23.42;;;4.88;;
55633;SDS011;41504;53.162;6.788;2023-12-20T05:04:11;18.30;;;3.97;;
55633;SDS011;41504;53.162;6.788;2023-12-20T05:06:36;23.45;;;4.30;;
55633;SDS011;41504;53.162;6.788;2023-12-20T05:09:02;19.38;;;4.50;;
55633;SDS011;41504;53.162;6.788;2023-12-20T05:11:28;19.00;;;4.18;;
55633;SDS011;41504;53.162;6.788;2023-12-20T05:13:54;18.52;;;4.63;;
55633;SDS011;41504;53.162;6.788;2023-12-20T05:16:19;20.83;;;5.18;;
55633;SDS011;41504;53.162;6.788;2023-12-20T05:18:48;22.77;;;4.07;;
55633;SDS011;41504;53.162;6.788;2023-12-20T05:21:15;25.38;;;4.38;;
55633;SDS011;41504;53.162;6.788;2023-12-20T05:23:41;22.15;;;4.70;;
55633;SDS011;41504;53.162;6.788;2023-12-20T05:26:07;17.55;;;4.40;;
55633;SDS011;41504;53.162;6.788;2023-12-20T05:28:32;22.05;;;4.60;;
55633;SDS011;41504;53.162;6.788;2023-12-20T05:30:58;25.92;;;4.90;;
55633;SDS011;41504;53.162;6.788;2023-12-20T05:33:24;19.73;;;4.05;;
55633;SDS011;41504;53.162;6.788;2023-12-20T05:35:49;18.35;;;4.15;;
55633;SDS011;41504;53.162;6.788;2023-12-20T05:38:15;22.90;;;4.47;;
55633;SDS011;41504;53.162;6.788;2023-12-20T05:40:41;17.35;;;3.92;;
55633;SDS011;41504;53.162;6.788;2023-12-20T05:43:07;19.60;;;4.22;;
55633;SDS011;41504;53.162;6.788;2023-12-20T05:45:33;22.85;;;4.78;;
55633;SDS011;41504;53.162;6.788;2023-12-20T05:47:59;26.65;;;4.93;;
55633;SDS011;41504;53.162;6.788;2023-12-20T05:50:25;25.67;;;5.05;;
55633;SDS011;41504;53.162;6.788;2023-12-20T05:52:50;22.88;;;4.82;;
55633;SDS011;41504;53.162;6.788;2023-12-20T05:55:16;25.55;;;4.75;;
55633;SDS011;41504;53.162;6.788;2023-12-20T05:57:42;23.05;;;4.47;;
55633;SDS011;41504;53.162;6.788;2023-12-20T06:00:08;21.17;;;4.10;;
55633;SDS011;41504;53.162;6.788;2023-12-20T06:02:34;21.17;;;4.38;;
55633;SDS011;41504;53.162;6.788;2023-12-20T06:05:02;24.15;;;4.60;;
55633;SDS011;41504;53.162;6.788;2023-12-20T06:07:29;23.73;;;5.07;;
55633;SDS011;41504;53.162;6.788;2023-12-20T06:09:55;25.30;;;4.97;;
55633;SDS011;41504;53.162;6.788;2023-12-20T06:12:21;23.05;;;5.05;;
55633;SDS011;41504;53.162;6.788;2023-12-20T06:14:48;24.83;;;4.72;;
55633;SDS011;41504;53.162;6.788;2023-12-20T06:17:14;20.85;;;4.40;;
55633;SDS011;41504;53.162;6.788;2023-12-20T06:19:40;21.60;;;4.35;;
55633;SDS011;41504;53.162;6.788;2023-12-20T06:22:10;26.50;;;4.38;;
55633;SDS011;41504;53.162;6.788;2023-12-20T06:24:36;18.75;;;4.45;;
55633;SDS011;41504;53.162;6.788;2023-12-20T06:27:01;19.65;;;4.97;;
55633;SDS011;41504;53.162;6.788;2023-12-20T06:29:27;23.30;;;4.57;;
55633;SDS011;41504;53.162;6.788;2023-12-20T06:31:53;19.73;;;4.20;;
55633;SDS011;41504;53.162;6.788;2023-12-20T06:34:19;23.88;;;4.63;;
55633;SDS011;41504;53.162;6.788;2023-12-20T06:36:44;25.85;;;4.63;;
55633;SDS011;41504;53.162;6.788;2023-12-20T06:39:10;26.90;;;5.53;;
55633;SDS011;41504;53.162;6.788;2023-12-20T06:41:37;22.50;;;4.60;;
55633;SDS011;41504;53.162;6.788;2023-12-20T06:44:03;22.77;;;5.18;;
55633;SDS011;41504;53.162;6.788;2023-12-20T06:46:29;20.90;;;4.78;;
55633;SDS011;41504;53.162;6.788;2023-12-20T06:48:55;27.42;;;4.50;;
55633;SDS011;41504;53.162;6.788;2023-12-20T06:51:21;22.13;;;4.88;;
55633;SDS011;41504;53.162;6.788;2023-12-20T06:53:50;28.05;;;5.75;;
55633;SDS011;41504;53.162;6.788;2023-12-20T06:56:18;21.30;;;4.20;;
55633;SDS011;41504;53.162;6.788;2023-12-20T06:58:44;19.75;;;4.78;;
55633;SDS011;41504;53.162;6.788;2023-12-20T07:01:13;22.98;;;5.00;;
55633;SDS011;41504;53.162;6.788;2023-12-20T07:03:40;19.48;;;4.45;;
55633;SDS011;41504;53.162;6.788;2023-12-20T07:06:06;18.60;;;4.57;;
55633;SDS011;41504;53.162;6.788;2023-12-20T07:08:31;23.30;;;4.53;;
55633;SDS011;41504;53.162;6.788;2023-12-20T07:10:57;20.42;;;4.43;;
55633;SDS011;41504;53.162;6.788;2023-12-20T07:13:23;21.17;;;4.40;;
55633;SDS011;41504;53.162;6.788;2023-12-20T07:15:49;17.45;;;4.80;;
55633;SDS011;41504;53.162;6.788;2023-12-20T07:18:15;21.27;;;3.95;;
55633;SDS011;41504;53.162;6.788;2023-12-20T07:20:41;19.60;;;5.13;;
55633;SDS011;41504;53.162;6.788;2023-12-20T07:23:08;24.35;;;4.50;;
55633;SDS011;41504;53.162;6.788;2023-12-20T07:25:34;21.27;;;4.80;;
55633;SDS011;41504;53.162;6.788;2023-12-20T07:27:59;24.25;;;4.93;;
55633;SDS011;41504;53.162;6.788;2023-12-20T07:30:25;21.58;;;4.03;;
55633;SDS011;41504;53.162;6.788;2023-12-20T07:32:51;20.63;;;5.25;;
55633;SDS011;41504;53.162;6.788;2023-12-20T07:35:17;18.35;;;4.25;;
55633;SDS011;41504;53.162;6.788;2023-12-20T07:37:43;21.20;;;5.15;;
55633;SDS011;41504;53.162;6.788;2023-12-20T07:40:09;20.85;;;4.50;;
55633;SDS011;41504;53.162;6.788;2023-12-20T07:42:35;17.80;;;4.07;;
55633;SDS011;41504;53.162;6.788;2023-12-20T07:45:01;19.88;;;5.18;;
55633;SDS011;41504;53.162;6.788;2023-12-20T07:47:27;24.85;;;4.20;;
55633;SDS011;41504;53.162;6.788;2023-12-20T07:49:53;21.45;;;4.60;;
55633;SDS011;41504;53.162;6.788;2023-12-20T07:52:19;19.23;;;4.13;;
55633;SDS011;41504;53.162;6.788;2023-12-20T07:54:45;20.98;;;4.85;;
55633;SDS011;41504;53.162;6.788;2023-12-20T07:57:11;21.38;;;4.32;;
55633;SDS011;41504;53.162;6.788;2023-12-20T07:59:37;21.63;;;4.40;;
55633;SDS011;41504;53.162;6.788;2023-12-20T08:02:06;20.77;;;4.65;;
55633;SDS011;41504;53.162;6.788;2023-12-20T08:04:32;20.77;;;4.47;;
55633;SDS011;41504;53.162;6.788;2023-12-20T08:06:58;19.25;;;4.40;;
55633;SDS011;41504;53.162;6.788;2023-12-20T08:09:23;19.77;;;4.28;;
55633;SDS011;41504;53.162;6.788;2023-12-20T08:11:49;20.00;;;4.97;;
55633;SDS011;41504;53.162;6.788;2023-12-20T08:14:15;20.55;;;4.78;;
55633;SDS011;41504;53.162;6.788;2023-12-20T08:16:41;23.35;;;4.65;;
55633;SDS011;41504;53.162;6.788;2023-12-20T08:19:06;20.30;;;4.22;;
55633;SDS011;41504;53.162;6.788;2023-12-20T08:21:32;26.98;;;5.10;;
55633;SDS011;41504;53.162;6.788;2023-12-20T08:23:58;19.20;;;4.45;;
55633;SDS011;41504;53.162;6.788;2023-12-20T08:26:25;21.30;;;4.65;;
55633;SDS011;41504;53.162;6.788;2023-12-20T08:28:51;19.05;;;5.00;;
55633;SDS011;41504;53.162;6.788;2023-12-20T08:31:20;19.00;;;4.68;;
55633;SDS011;41504;53.162;6.788;2023-12-20T08:33:46;18.88;;;5.18;;
55633;SDS011;41504;53.162;6.788;2023-12-20T08:36:13;22.67;;;4.63;;
55633;SDS011;41504;53.162;6.788;2023-12-20T08:38:39;19.10;;;4.53;;
55633;SDS011;41504;53.162;6.788;2023-12-20T08:41:06;20.63;;;4.50;;
55633;SDS011;41504;53.162;6.788;2023-12-20T08:43:33;17.27;;;4.18;;
55633;SDS011;41504;53.162;6.788;2023-12-20T08:46:00;19.52;;;4.38;;
55633;SDS011;41504;53.162;6.788;2023-12-20T08:48:33;14.98;;;4.32;;
55633;SDS011;41504;53.162;6.788;2023-12-20T08:50:58;11.30;;;2.17;;
55633;SDS011;41504;53.162;6.788;2023-12-20T08:53:26;7.68;;;1.50;;
55633;SDS011;41504;53.162;6.788;2023-12-20T08:55:55;6.70;;;1.55;;
55633;SDS011;41504;53.162;6.788;2023-12-20T08:58:23;9.85;;;1.73;;
55633;SDS011;41504;53.162;6.788;2023-12-20T09:00:48;7.07;;;1.60;;
55633;SDS011;41504;53.162;6.788;2023-12-20T09:03:23;7.03;;;1.52;;
55633;SDS011;41504;53.162;6.788;2023-12-20T09:05:49;9.68;;;1.98;;
55633;SDS011;41504;53.162;6.788;2023-12-20T09:08:15;6.57;;;1.60;;
55633;SDS011;41504;53.162;6.788;2023-12-20T09:10:40;7.53;;;1.88;;
55633;SDS011;41504;53.162;6.788;2023-12-20T09:13:06;8.25;;;1.92;;
55633;SDS011;41504;53.162;6.788;2023-12-20T09:15:32;7.40;;;1.67;;
55633;SDS011;41504;53.162;6.788;2023-12-20T09:17:59;8.38;;;2.28;;
55633;SDS011;41504;53.162;6.788;2023-12-20T09:20:25;10.60;;;1.80;;
55633;SDS011;41504;53.162;6.788;2023-12-20T09:22:50;11.43;;;2.15;;
55633;SDS011;41504;53.162;6.788;2023-12-20T09:25:16;10.90;;;2.00;;
55633;SDS011;41504;53.162;6.788;2023-12-20T09:27:42;11.15;;;2.00;;
55633;SDS011;41504;53.162;6.788;2023-12-20T09:30:08;13.68;;;3.28;;
55633;SDS011;41504;53.162;6.788;2023-12-20T09:32:35;11.00;;;2.35;;
55633;SDS011;41504;53.162;6.788;2023-12-20T09:35:01;14.80;;;2.35;;
55633;SDS011;41504;53.162;6.788;2023-12-20T09:37:27;10.70;;;2.00;;
55633;SDS011;41504;53.162;6.788;2023-12-20T09:39:56;10.88;;;2.08;;
55633;SDS011;41504;53.162;6.788;2023-12-20T09:42:26;10.70;;;2.00;;
55633;SDS011;41504;53.162;6.788;2023-12-20T09:45:01;11.50;;;1.70;;
55633;SDS011;41504;53.162;6.788;2023-12-20T09:47:28;8.70;;;1.80;;
55633;SDS011;41504;53.162;6.788;2023-12-20T09:49:54;8.80;;;2.00;;
55633;SDS011;41504;53.162;6.788;2023-12-20T09:52:20;7.35;;;2.13;;
55633;SDS011;41504;53.162;6.788;2023-12-20T09:54:53;10.88;;;2.35;;
55633;SDS011;41504;53.162;6.788;2023-12-20T09:57:20;8.95;;;2.25;;
55633;SDS011;41504;53.162;6.788;2023-12-20T09:59:46;7.07;;;1.98;;
55633;SDS011;41504;53.162;6.788;2023-12-20T10:02:12;7.93;;;2.00;;
55633;SDS011;41504;53.162;6.788;2023-12-20T10:04:42;11.65;;;2.38;;
55633;SDS011;41504;53.162;6.788;2023-12-20T10:07:12;7.55;;;2.15;;
55633;SDS011;41504;53.162;6.788;2023-12-20T10:09:38;10.82;;;2.03;;
55633;SDS011;41504;53.162;6.788;2023-12-20T10:12:04;8.95;;;2.83;;
55633;SDS011;41504;53.162;6.788;2023-12-20T10:14:30;10.40;;;3.28;;
55633;SDS011;41504;53.162;6.788;2023-12-20T10:17:04;12.70;;;3.50;;
55633;SDS011;41504;53.162;6.788;2023-12-20T10:19:31;12.00;;;3.20;;
55633;SDS011;41504;53.162;6.788;2023-12-20T10:22:03;9.23;;;2.60;;
55633;SDS011;41504;53.162;6.788;2023-12-20T10:24:30;11.02;;;2.38;;
55633;SDS011;41504;53.162;6.788;2023-12-20T10:27:06;12.88;;;2.45;;
55633;SDS011;41504;53.162;6.788;2023-12-20T10:29:33;12.13;;;2.35;;
55633;SDS011;41504;53.162;6.788;2023-12-20T10:32:21;12.23;;;2.58;;
55633;SDS011;41504;53.162;6.788;2023-12-20T10:34:47;13.82;;;3.03;;
55633;SDS011;41504;53.162;6.788;2023-12-20T10:37:12;8.82;;;2.08;;
55633;SDS011;41504;53.162;6.788;2023-12-20T10:39:38;12.32;;;2.50;;
55633;SDS011;41504;53.162;6.788;2023-12-20T10:42:04;11.98;;;3.13;;
55633;SDS011;41504;53.162;6.788;2023-12-20T10:44:31;12.10;;;2.88;;
55633;SDS011;41504;53.162;6.788;2023-12-20T10:46:57;11.80;;;2.83;;
55633;SDS011;41504;53.162;6.788;2023-12-20T10:49:24;9.98;;;2.60;;
55633;SDS011;41504;53.162;6.788;2023-12-20T10:51:52;11.13;;;2.55;;
55633;SDS011;41504;53.162;6.788;2023-12-20T10:54:22;12.93;;;3.15;;
55633;SDS011;41504;53.162;6.788;2023-12-20T10:56:48;11.75;;;3.60;;
55633;SDS011;41504;53.162;6.788;2023-12-20T10:59:17;13.40;;;3.85;;
55633;SDS011;41504;53.162;6.788;2023-12-20T11:01:44;13.05;;;2.90;;
55633;SDS011;41504;53.162;6.788;2023-12-20T11:04:13;13.55;;;3.30;;
55633;SDS011;41504;53.162;6.788;2023-12-20T11:07:06;13.68;;;3.55;;
55633;SDS011;41504;53.162;6.788;2023-12-20T11:09:43;15.32;;;3.40;;
55633;SDS011;41504;53.162;6.788;2023-12-20T11:12:20;15.32;;;3.70;;
55633;SDS011;41504;53.162;6.788;2023-12-20T11:15:07;13.30;;;3.53;;
55633;SDS011;41504;53.162;6.788;2023-12-20T11:17:33;13.95;;;3.33;;
55633;SDS011;41504;53.162;6.788;2023-12-20T11:22:30;15.82;;;3.55;;
55633;SDS011;41504;53.162;6.788;2023-12-20T11:25:03;15.40;;;3.88;;
55633;SDS011;41504;53.162;6.788;2023-12-20T11:27:33;15.38;;;3.90;;
55633;SDS011;41504;53.162;6.788;2023-12-20T11:29:59;13.23;;;3.47;;
55633;SDS011;41504;53.162;6.788;2023-12-20T11:32:27;16.65;;;3.65;;
55633;SDS011;41504;53.162;6.788;2023-12-20T11:35:00;16.27;;;3.50;;
55633;SDS011;41504;53.162;6.788;2023-12-20T11:37:42;11.45;;;2.92;;
55633;SDS011;41504;53.162;6.788;2023-12-20T11:40:08;16.38;;;3.42;;
55633;SDS011;41504;53.162;6.788;2023-12-20T11:42:43;13.98;;;2.75;;
55633;SDS011;41504;53.162;6.788;2023-12-20T11:47:40;13.80;;;3.13;;
55633;SDS011;41504;53.162;6.788;2023-12-20T11:50:07;15.80;;;2.92;;
55633;SDS011;41504;53.162;6.788;2023-12-20T11:52:33;12.48;;;2.70;;
55633;SDS011;41504;53.162;6.788;2023-12-20T11:55:00;14.95;;;3.22;;
55633;SDS011;41504;53.162;6.788;2023-12-20T11:57:25;12.65;;;2.72;;
55633;SDS011;41504;53.162;6.788;2023-12-20T11:59:51;14.85;;;3.03;;
55633;SDS011;41504;53.162;6.788;2023-12-20T12:02:17;13.15;;;2.95;;
55633;SDS011;41504;53.162;6.788;2023-12-20T12:04:42;13.75;;;3.42;;
55633;SDS011;41504;53.162;6.788;2023-12-20T12:07:08;13.90;;;2.70;;
55633;SDS011;41504;53.162;6.788;2023-12-20T12:09:34;18.05;;;3.20;;
55633;SDS011;41504;53.162;6.788;2023-12-20T12:12:00;15.75;;;3.38;;
55633;SDS011;41504;53.162;6.788;2023-12-20T12:14:26;15.55;;;2.92;;
55633;SDS011;41504;53.162;6.788;2023-12-20T12:16:52;13.25;;;2.90;;
55633;SDS011;41504;53.162;6.788;2023-12-20T12:19:25;14.27;;;2.75;;
55633;SDS011;41504;53.162;6.788;2023-12-20T12:22:03;14.02;;;2.63;;
55633;SDS011;41504;53.162;6.788;2023-12-20T12:24:32;16.20;;;3.58;;
55633;SDS011;41504;53.162;6.788;2023-12-20T12:26:58;13.48;;;3.05;;
55633;SDS011;41504;53.162;6.788;2023-12-20T12:29:24;17.15;;;3.35;;
55633;SDS011;41504;53.162;6.788;2023-12-20T12:31:50;17.60;;;2.80;;
55633;SDS011;41504;53.162;6.788;2023-12-20T12:34:17;17.88;;;3.03;;
55633;SDS011;41504;53.162;6.788;2023-12-20T12:36:43;11.20;;;2.75;;
55633;SDS011;41504;53.162;6.788;2023-12-20T12:39:09;15.07;;;2.90;;
55633;SDS011;41504;53.162;6.788;2023-12-20T12:41:37;13.45;;;2.60;;
55633;SDS011;41504;53.162;6.788;2023-12-20T12:44:02;11.20;;;2.60;;
55633;SDS011;41504;53.162;6.788;2023-12-20T12:46:28;15.50;;;2.70;;
55633;SDS011;41504;53.162;6.788;2023-12-20T12:48:54;15.55;;;2.90;;
55633;SDS011;41504;53.162;6.788;2023-12-20T12:51:20;14.55;;;2.55;;
55633;SDS011;41504;53.162;6.788;2023-12-20T12:53:46;11.82;;;2.50;;
55633;SDS011;41504;53.162;6.788;2023-12-20T12:56:12;15.88;;;2.85;;
55633;SDS011;41504;53.162;6.788;2023-12-20T12:58:38;13.27;;;2.38;;
55633;SDS011;41504;53.162;6.788;2023-12-20T13:01:04;12.13;;;2.80;;
55633;SDS011;41504;53.162;6.788;2023-12-20T13:03:30;13.20;;;2.55;;
55633;SDS011;41504;53.162;6.788;2023-12-20T13:05:56;15.40;;;2.83;;
55633;SDS011;41504;53.162;6.788;2023-12-20T13:08:21;13.93;;;2.97;;
55633;SDS011;41504;53.162;6.788;2023-12-20T13:10:47;12.63;;;2.42;;
55633;SDS011;41504;53.162;6.788;2023-12-20T13:13:13;10.18;;;2.92;;
55633;SDS011;41504;53.162;6.788;2023-12-20T13:15:39;11.40;;;3.20;;
55633;SDS011;41504;53.162;6.788;2023-12-20T13:18:05;12.55;;;2.50;;
55633;SDS011;41504;53.162;6.788;2023-12-20T13:20:31;13.23;;;2.33;;
55633;SDS011;41504;53.162;6.788;2023-12-20T13:22:58;13.52;;;2.85;;
55633;SDS011;41504;53.162;6.788;2023-12-20T13:25:24;15.30;;;3.13;;
55633;SDS011;41504;53.162;6.788;2023-12-20T13:27:50;16.60;;;3.30;;
55633;SDS011;41504;53.162;6.788;2023-12-20T13:30:16;14.73;;;3.28;;
55633;SDS011;41504;53.162;6.788;2023-12-20T13:32:42;16.65;;;3.20;;
55633;SDS011;41504;53.162;6.788;2023-12-20T13:35:08;14.35;;;2.92;;
55633;SDS011;41504;53.162;6.788;2023-12-20T13:37:34;14.93;;;3.50;;
55633;SDS011;41504;53.162;6.788;2023-12-20T13:40:00;17.67;;;3.38;;
55633;SDS011;41504;53.162;6.788;2023-12-20T13:42:28;13.82;;;3.03;;
55633;SDS011;41504;53.162;6.788;2023-12-20T13:44:54;16.00;;;3.65;;
55633;SDS011;41504;53.162;6.788;2023-12-20T13:47:19;14.45;;;3.97;;
55633;SDS011;41504;53.162;6.788;2023-12-20T13:49:45;12.25;;;3.05;;
55633;SDS011;41504;53.162;6.788;2023-12-20T13:52:10;13.45;;;4.13;;
55633;SDS011;41504;53.162;6.788;2023-12-20T13:54:37;12.25;;;3.17;;
55633;SDS011;41504;53.162;6.788;2023-12-20T13:57:03;16.10;;;3.92;;
55633;SDS011;41504;53.162;6.788;2023-12-20T13:59:29;12.50;;;2.95;;
55633;SDS011;41504;53.162;6.788;2023-12-20T14:01:54;12.50;;;3.30;;
55633;SDS011;41504;53.162;6.788;2023-12-20T14:04:22;12.20;;;2.97;;
55633;SDS011;41504;53.162;6.788;2023-12-20T14:06:47;12.88;;;3.08;;
55633;SDS011;41504;53.162;6.788;2023-12-20T14:09:13;11.90;;;2.83;;
55633;SDS011;41504;53.162;6.788;2023-12-20T14:11:40;10.43;;;3.10;;
55633;SDS011;41504;53.162;6.788;2023-12-20T14:14:09;12.68;;;4.28;;
55633;SDS011;41504;53.162;6.788;2023-12-20T14:16:35;11.68;;;3.35;;
55633;SDS011;41504;53.162;6.788;2023-12-20T14:19:01;11.70;;;3.63;;
55633;SDS011;41504;53.162;6.788;2023-12-20T14:21:28;9.80;;;3.13;;
55633;SDS011;41504;53.162;6.788;2023-12-20T14:23:54;10.77;;;2.88;;
55633;SDS011;41504;53.162;6.788;2023-12-20T14:26:20;15.75;;;5.10;;
55633;SDS011;41504;53.162;6.788;2023-12-20T14:28:45;11.10;;;3.00;;
55633;SDS011;41504;53.162;6.788;2023-12-20T14:31:11;11.23;;;3.15;;
55633;SDS011;41504;53.162;6.788;2023-12-20T14:33:37;11.40;;;3.00;;
55633;SDS011;41504;53.162;6.788;2023-12-20T14:36:04;7.30;;;1.80;;
55633;SDS011;41504;53.162;6.788;2023-12-20T14:38:31;8.80;;;2.50;;